createdAt,value
2017-12-14T00:00:45.627Z,17.80
2017-12-14T00:03:13.230Z,14.70
2017-12-14T00:05:41.128Z,17.73
2017-12-14T00:08:10.104Z,22.50
2017-12-14T00:10:37.660Z,17.33
2017-12-14T00:13:05.160Z,19.73
2017-12-14T00:15:32.660Z,17.17
2017-12-14T00:18:00.187Z,21.43
2017-12-14T00:20:27.712Z,15.40
2017-12-14T00:22:56.007Z,18.60
2017-12-14T00:25:25.007Z,16.33
2017-12-14T00:27:52.499Z,18.30
2017-12-14T00:30:20.009Z,18.57
2017-12-14T00:32:48.317Z,21.60
2017-12-14T00:35:16.531Z,17.03
2017-12-14T00:37:44.030Z,17.90
2017-12-14T00:40:11.900Z,19.00
2017-12-14T00:42:39.477Z,16.50
2017-12-14T00:45:08.135Z,17.20
2017-12-14T00:47:36.150Z,18.00
2017-12-14T00:50:03.831Z,23.23
2017-12-14T00:52:31.790Z,19.17
2017-12-14T00:54:59.369Z,26.40
2017-12-14T00:57:28.625Z,18.00
2017-12-14T00:59:56.196Z,16.37
2017-12-14T01:02:23.771Z,19.43
2017-12-14T01:04:53.594Z,17.90
2017-12-14T01:07:21.144Z,17.40
2017-12-14T01:09:49.506Z,18.73
2017-12-14T01:12:17.104Z,21.17
2017-12-14T01:14:44.686Z,20.07
2017-12-14T01:17:12.458Z,20.23
2017-12-14T01:19:39.981Z,24.30
2017-12-14T01:22:07.577Z,18.60
2017-12-14T01:24:36.023Z,14.73
2017-12-14T01:27:03.694Z,15.43
2017-12-14T01:29:31.840Z,17.43
2017-12-14T01:31:59.546Z,16.40
2017-12-14T01:34:27.067Z,18.07
2017-12-14T01:36:54.602Z,18.20
2017-12-14T01:39:22.839Z,16.00
2017-12-14T01:41:51.146Z,17.33
2017-12-14T01:44:18.656Z,17.87
2017-12-14T01:46:47.017Z,17.70
2017-12-14T01:49:14.573Z,17.20
2017-12-14T01:51:44.064Z,18.43
2017-12-14T01:54:11.628Z,20.00
2017-12-14T01:56:39.257Z,17.93
2017-12-14T01:59:06.828Z,17.00
2017-12-14T02:01:34.355Z,20.00
2017-12-14T02:04:03.431Z,17.73
2017-12-14T02:06:31.171Z,16.30
2017-12-14T02:08:59.212Z,17.53
2017-12-14T02:11:28.820Z,14.23
2017-12-14T02:13:56.401Z,16.80
2017-12-14T02:16:23.983Z,16.10
2017-12-14T02:18:51.560Z,15.00
2017-12-14T02:21:19.136Z,17.20
2017-12-14T02:23:46.737Z,15.50
2017-12-14T02:26:15.327Z,14.00
2017-12-14T02:28:42.889Z,19.47
2017-12-14T02:31:12.085Z,14.43
2017-12-14T02:33:40.157Z,16.53
2017-12-14T02:36:07.682Z,16.37
2017-12-14T02:38:35.838Z,15.00
2017-12-14T02:41:03.389Z,15.53
2017-12-14T02:43:31.985Z,15.37
2017-12-14T02:46:00.345Z,15.03
2017-12-14T02:48:27.907Z,13.50
2017-12-14T02:50:56.263Z,17.70
2017-12-14T02:53:23.820Z,15.97
2017-12-14T02:55:51.414Z,13.53
2017-12-14T02:58:18.944Z,14.37
2017-12-14T03:00:46.513Z,15.47
2017-12-14T03:03:14.230Z,13.87
2017-12-14T03:05:42.429Z,14.90
2017-12-14T03:08:09.997Z,16.77
2017-12-14T03:10:37.553Z,15.93
2017-12-14T03:13:05.092Z,13.73
2017-12-14T03:15:32.693Z,15.53
2017-12-14T03:18:00.235Z,14.30
2017-12-14T03:20:27.843Z,19.63
2017-12-14T03:22:56.136Z,18.13
2017-12-14T03:25:23.661Z,16.33
2017-12-14T03:27:51.213Z,13.97
2017-12-14T03:30:19.709Z,21.80
2017-12-14T03:32:48.042Z,16.53
2017-12-14T03:35:15.563Z,19.60
2017-12-14T03:37:43.106Z,16.60
2017-12-14T03:40:12.627Z,17.30
2017-12-14T03:42:40.144Z,18.20
2017-12-14T03:45:09.203Z,17.23
2017-12-14T03:47:36.812Z,15.07
2017-12-14T03:50:05.830Z,16.23
2017-12-14T03:52:34.303Z,15.33
2017-12-14T03:55:01.851Z,16.20
2017-12-14T03:57:29.454Z,17.90
2017-12-14T03:59:57.018Z,15.83
2017-12-14T04:02:24.547Z,14.70
2017-12-14T04:04:52.842Z,16.93
2017-12-14T04:07:20.456Z,16.20
2017-12-14T04:09:48.030Z,17.03
2017-12-14T04:12:15.595Z,13.83
2017-12-14T04:14:43.988Z,13.50
2017-12-14T04:17:11.538Z,13.97
2017-12-14T04:19:39.909Z,16.63
2017-12-14T04:22:07.539Z,16.70
2017-12-14T04:24:35.200Z,15.33
2017-12-14T04:27:02.757Z,13.33
2017-12-14T04:29:30.939Z,16.97
2017-12-14T04:31:58.525Z,16.83
2017-12-14T04:34:26.188Z,13.30
2017-12-14T04:36:53.780Z,15.63
2017-12-14T04:39:21.359Z,12.83
2017-12-14T04:41:50.547Z,15.70
2017-12-14T04:44:18.137Z,12.43
2017-12-14T04:46:45.878Z,15.07
2017-12-14T04:49:13.438Z,16.60
2017-12-14T04:51:41.620Z,13.23
2017-12-14T04:54:09.180Z,14.27
2017-12-14T04:56:37.252Z,14.13
2017-12-14T04:59:04.941Z,14.40
2017-12-14T05:01:32.575Z,13.50
2017-12-14T05:04:00.165Z,16.37
2017-12-14T05:06:27.789Z,14.13
2017-12-14T05:08:55.368Z,15.07
2017-12-14T05:11:22.947Z,14.60
2017-12-14T05:13:50.523Z,17.10
2017-12-14T05:16:18.112Z,15.83
2017-12-14T05:18:45.816Z,15.80
2017-12-14T05:21:17.275Z,16.70
2017-12-14T05:23:44.901Z,16.83
2017-12-14T05:26:12.504Z,14.77
2017-12-14T05:28:41.779Z,19.57
2017-12-14T05:31:09.709Z,17.47
2017-12-14T05:33:37.290Z,18.57
2017-12-14T05:36:06.000Z,19.20
2017-12-14T05:38:33.629Z,19.00
2017-12-14T05:41:01.290Z,18.40
2017-12-14T05:43:28.966Z,21.30
2017-12-14T05:45:56.557Z,18.67
2017-12-14T05:48:24.210Z,16.50
2017-12-14T05:50:51.895Z,16.50
2017-12-14T05:53:19.485Z,17.10
2017-12-14T05:55:47.086Z,18.47
2017-12-14T05:58:14.696Z,18.60
2017-12-14T06:00:42.308Z,14.10
2017-12-14T06:03:09.975Z,15.60
2017-12-14T06:05:37.557Z,26.00
2017-12-14T06:08:05.926Z,20.20
2017-12-14T06:10:33.792Z,21.30
2017-12-14T06:13:01.364Z,22.57
2017-12-14T06:15:29.110Z,19.57
2017-12-14T06:17:56.857Z,21.37
2017-12-14T06:20:24.476Z,16.70
2017-12-14T06:22:52.836Z,18.50
2017-12-14T06:25:20.373Z,22.60
2017-12-14T06:27:49.089Z,24.13
2017-12-14T06:30:16.702Z,16.73
2017-12-14T06:32:44.335Z,16.63
2017-12-14T06:35:12.765Z,14.70
2017-12-14T06:37:40.399Z,17.57
2017-12-14T06:40:11.034Z,24.70
2017-12-14T06:42:38.592Z,29.37
2017-12-14T06:45:06.974Z,18.83
2017-12-14T06:47:34.568Z,20.73
2017-12-14T06:50:02.180Z,19.00
2017-12-14T06:52:29.753Z,20.20
2017-12-14T06:54:57.634Z,29.73
2017-12-14T06:57:25.218Z,23.93
2017-12-14T06:59:52.825Z,17.40
2017-12-14T07:02:20.437Z,31.67
2017-12-14T07:04:48.018Z,22.20
2017-12-14T07:07:16.387Z,19.83
2017-12-14T07:09:43.992Z,32.50
2017-12-14T07:12:11.810Z,19.63
2017-12-14T07:14:39.453Z,24.27
2017-12-14T07:17:07.040Z,26.90
2017-12-14T07:19:34.678Z,21.13
2017-12-14T07:22:02.523Z,22.40
2017-12-14T07:24:30.102Z,21.33
2017-12-14T07:26:57.675Z,23.10
2017-12-14T07:29:25.323Z,29.73
2017-12-14T07:31:52.881Z,25.80
2017-12-14T07:34:20.549Z,23.27
2017-12-14T07:36:52.007Z,25.20
2017-12-14T07:39:19.666Z,18.77
2017-12-14T07:41:47.308Z,18.23
2017-12-14T07:44:26.706Z,19.00
2017-12-14T07:47:06.135Z,22.50
2017-12-14T07:49:34.553Z,19.40
2017-12-14T07:52:02.164Z,25.07
2017-12-14T07:54:29.770Z,27.20
2017-12-14T07:56:57.360Z,28.00
2017-12-14T07:59:24.968Z,25.17
2017-12-14T08:01:52.562Z,20.80
2017-12-14T08:04:20.189Z,22.80
2017-12-14T08:06:48.580Z,25.93
2017-12-14T08:09:16.180Z,27.43
2017-12-14T08:11:43.802Z,23.53
2017-12-14T08:14:11.413Z,15.40
2017-12-14T08:16:39.054Z,13.90
2017-12-14T08:19:06.755Z,18.10
2017-12-14T08:21:34.315Z,22.03
2017-12-14T08:24:02.468Z,22.80
2017-12-14T08:26:30.040Z,17.53
2017-12-14T08:28:59.116Z,21.10
2017-12-14T08:31:26.735Z,16.10
2017-12-14T08:33:54.370Z,19.00
2017-12-14T08:36:22.771Z,19.83
2017-12-14T08:38:51.152Z,17.10
2017-12-14T08:41:18.747Z,22.13
2017-12-14T08:43:46.353Z,23.33
2017-12-14T08:46:14.046Z,22.93
2017-12-14T08:48:41.617Z,18.93
2017-12-14T08:51:09.243Z,21.97
2017-12-14T08:53:36.817Z,17.30
2017-12-14T08:56:04.415Z,14.40
2017-12-14T08:58:32.662Z,18.83
2017-12-14T09:01:00.247Z,16.80
2017-12-14T09:03:27.828Z,15.83
2017-12-14T09:05:55.431Z,13.93
2017-12-14T09:08:22.989Z,13.77
2017-12-14T09:10:50.635Z,17.00
2017-12-14T09:13:18.247Z,11.30
2017-12-14T09:15:45.777Z,11.00
2017-12-14T09:18:13.561Z,14.43
2017-12-14T09:20:41.156Z,9.40
2017-12-14T09:23:08.728Z,5.23
2017-12-14T09:25:36.277Z,7.23
2017-12-14T09:28:04.417Z,6.27
2017-12-14T09:30:31.987Z,4.57
2017-12-14T09:32:59.624Z,9.83
2017-12-14T09:35:27.190Z,6.37
2017-12-14T09:37:54.756Z,4.23
2017-12-14T09:40:22.371Z,3.50
2017-12-14T09:42:50.752Z,2.23
2017-12-14T09:45:18.313Z,2.10
2017-12-14T09:47:46.037Z,1.43
2017-12-14T09:50:14.388Z,1.40
2017-12-14T09:52:42.006Z,4.77
2017-12-14T09:55:09.570Z,1.33
2017-12-14T09:57:38.133Z,1.70
2017-12-14T10:00:05.850Z,1.60
2017-12-14T10:02:34.192Z,3.83
2017-12-14T10:05:01.779Z,1.30
2017-12-14T10:07:31.062Z,2.60
2017-12-14T10:09:59.214Z,2.03
2017-12-14T10:12:26.788Z,3.17
2017-12-14T10:14:54.379Z,4.00
2017-12-14T10:17:22.000Z,2.00
2017-12-14T10:19:49.650Z,4.50
2017-12-14T10:22:17.265Z,6.50
2017-12-14T10:24:45.327Z,1.60
2017-12-14T10:27:13.019Z,2.47
2017-12-14T10:29:40.621Z,1.63
2017-12-14T10:32:08.296Z,1.83
2017-12-14T10:34:36.605Z,1.70
2017-12-14T10:37:04.914Z,3.60
2017-12-14T10:39:32.595Z,1.40
2017-12-14T10:42:00.214Z,9.33
2017-12-14T10:44:27.830Z,1.53
2017-12-14T10:46:55.831Z,2.77
2017-12-14T10:49:23.510Z,1.00
2017-12-14T10:51:51.081Z,3.97
2017-12-14T10:54:18.727Z,2.10
2017-12-14T10:56:46.289Z,5.87
2017-12-14T10:59:13.873Z,2.70
2017-12-14T11:01:42.074Z,1.47
2017-12-14T11:04:09.726Z,0.70
2017-12-14T11:06:37.631Z,3.90
2017-12-14T11:09:06.893Z,7.67
2017-12-14T11:11:35.000Z,1.53
2017-12-14T11:14:03.999Z,1.90
2017-12-14T11:16:31.631Z,2.43
2017-12-14T11:18:59.244Z,0.77
2017-12-14T11:21:26.843Z,2.10
2017-12-14T11:23:54.458Z,2.50
2017-12-14T11:26:22.035Z,0.60
2017-12-14T11:28:49.650Z,0.73
2017-12-14T11:31:17.270Z,0.63
2017-12-14T11:33:45.161Z,3.70
2017-12-14T11:36:12.810Z,2.30
2017-12-14T11:38:40.411Z,1.73
2017-12-14T11:41:08.260Z,0.53
2017-12-14T11:43:35.820Z,1.57
2017-12-14T11:46:03.380Z,1.57
2017-12-14T11:48:30.983Z,1.33
2017-12-14T11:50:58.583Z,0.83
2017-12-14T11:53:26.178Z,1.00
2017-12-14T11:55:54.489Z,3.70
2017-12-14T11:58:22.176Z,2.20
2017-12-14T12:00:49.768Z,1.97
2017-12-14T12:03:17.364Z,2.77
2017-12-14T12:05:44.954Z,7.30
2017-12-14T12:08:12.559Z,5.37
2017-12-14T12:10:41.408Z,11.23
2017-12-14T12:13:09.014Z,11.40
2017-12-14T12:15:37.408Z,9.30
2017-12-14T12:18:05.971Z,13.73
2017-12-14T12:20:34.350Z,15.70
2017-12-14T12:23:02.920Z,12.17
2017-12-14T12:25:31.317Z,3.47
2017-12-14T12:27:59.764Z,3.60
2017-12-14T12:30:27.377Z,3.60
2017-12-14T12:32:54.959Z,4.80
2017-12-14T12:35:22.592Z,1.80
2017-12-14T12:37:50.920Z,5.20
2017-12-14T12:40:18.522Z,4.83
2017-12-14T12:42:47.015Z,2.27
2017-12-14T12:45:15.552Z,1.43
2017-12-14T12:47:43.150Z,4.17
2017-12-14T12:50:11.504Z,4.67
2017-12-14T12:52:39.331Z,2.70
2017-12-14T12:55:06.912Z,1.67
2017-12-14T12:57:34.435Z,2.10
2017-12-14T13:00:02.043Z,0.93
2017-12-14T13:02:29.614Z,2.40
2017-12-14T13:04:57.195Z,1.87
2017-12-14T13:07:25.574Z,3.80
2017-12-14T13:09:54.835Z,2.53
2017-12-14T13:12:22.431Z,2.30
2017-12-14T13:14:50.074Z,1.50
2017-12-14T13:17:17.651Z,2.50
2017-12-14T13:19:45.965Z,1.40
2017-12-14T13:22:13.605Z,1.10
2017-12-14T13:24:41.515Z,5.80
2017-12-14T13:27:09.136Z,1.60
2017-12-14T13:29:37.512Z,2.73
2017-12-14T13:32:05.096Z,0.80
2017-12-14T13:34:32.655Z,0.70
2017-12-14T13:37:00.251Z,2.03
2017-12-14T13:39:27.887Z,2.40
2017-12-14T13:41:55.678Z,1.73
2017-12-14T13:44:23.278Z,3.40
2017-12-14T13:46:50.838Z,2.37
2017-12-14T13:49:18.433Z,2.67
2017-12-14T13:51:46.055Z,2.00
2017-12-14T13:54:14.372Z,3.30
2017-12-14T13:56:41.977Z,1.40
2017-12-14T13:59:10.359Z,2.37
2017-12-14T14:01:38.769Z,1.80
2017-12-14T14:04:06.432Z,3.00
2017-12-14T14:06:33.984Z,1.60
2017-12-14T14:09:01.548Z,2.10
2017-12-14T14:11:29.111Z,4.10
2017-12-14T14:13:56.891Z,3.80
2017-12-14T14:16:24.638Z,3.27
2017-12-14T14:18:52.179Z,2.67
2017-12-14T14:21:20.513Z,2.33
2017-12-14T14:23:48.046Z,1.63
2017-12-14T14:26:15.613Z,1.93
2017-12-14T14:28:43.146Z,4.10
2017-12-14T14:31:12.341Z,1.23
2017-12-14T14:33:40.708Z,1.20
2017-12-14T14:36:08.303Z,7.40
2017-12-14T14:38:36.604Z,1.30
2017-12-14T14:41:04.494Z,1.87
2017-12-14T14:43:32.097Z,7.20
2017-12-14T14:45:59.673Z,2.00
2017-12-14T14:48:27.264Z,4.17
2017-12-14T14:50:55.776Z,2.40
2017-12-14T14:53:24.087Z,2.17
2017-12-14T14:55:51.674Z,1.97
2017-12-14T14:58:19.239Z,2.40
2017-12-14T15:00:46.805Z,1.97
2017-12-14T15:03:14.389Z,4.33
2017-12-14T15:05:43.314Z,2.20
2017-12-14T15:08:10.883Z,3.50
2017-12-14T15:10:38.718Z,3.37
2017-12-14T15:13:06.284Z,7.63
2017-12-14T15:15:33.875Z,7.10
2017-12-14T15:18:01.456Z,3.80
2017-12-14T15:20:29.025Z,6.27
2017-12-14T15:22:56.639Z,4.87
2017-12-14T15:25:24.242Z,7.63
2017-12-14T15:27:51.793Z,2.93
2017-12-14T15:30:19.336Z,5.40
2017-12-14T15:32:46.904Z,5.20
2017-12-14T15:35:14.929Z,2.67
2017-12-14T15:37:42.638Z,2.03
2017-12-14T15:40:10.203Z,2.70
2017-12-14T15:42:37.758Z,4.77
2017-12-14T15:45:05.541Z,7.33
2017-12-14T15:47:33.055Z,1.50
2017-12-14T15:50:00.601Z,3.13
2017-12-14T15:52:28.917Z,4.60
2017-12-14T15:54:56.849Z,3.70
2017-12-14T15:57:25.177Z,2.63
2017-12-14T15:59:52.729Z,7.37
2017-12-14T16:02:20.273Z,5.90
2017-12-14T16:04:47.842Z,2.90
2017-12-14T16:07:15.437Z,3.57
2017-12-14T16:09:43.740Z,7.87
2017-12-14T16:12:12.026Z,5.40
2017-12-14T16:14:40.352Z,5.40
2017-12-14T16:17:08.297Z,4.80
2017-12-14T16:19:36.299Z,3.77
2017-12-14T16:22:03.847Z,3.30
2017-12-14T16:24:31.422Z,4.60
2017-12-14T16:26:58.919Z,2.10
2017-12-14T16:29:27.222Z,3.10
2017-12-14T16:31:54.836Z,5.37
2017-12-14T16:34:23.211Z,3.80
2017-12-14T16:36:50.727Z,3.83
2017-12-14T16:39:18.380Z,5.00
2017-12-14T16:41:45.904Z,6.80
2017-12-14T16:44:13.508Z,5.00
2017-12-14T16:46:41.471Z,8.83
2017-12-14T16:49:09.132Z,7.13
2017-12-14T16:51:36.747Z,8.40
2017-12-14T16:54:04.380Z,7.80
2017-12-14T16:56:32.640Z,8.07
2017-12-14T16:59:01.071Z,10.57
2017-12-14T17:01:31.131Z,8.93
2017-12-14T17:03:58.692Z,17.30
2017-12-14T17:06:26.264Z,14.80
2017-12-14T17:08:53.819Z,11.73
2017-12-14T17:11:21.391Z,5.97
2017-12-14T17:13:48.997Z,11.47
2017-12-14T17:16:17.446Z,14.47
2017-12-14T17:18:45.611Z,13.37
2017-12-14T17:21:13.183Z,9.73
2017-12-14T17:23:40.927Z,12.40
2017-12-14T17:26:08.476Z,10.20
2017-12-14T17:28:36.021Z,8.60
2017-12-14T17:31:04.156Z,18.87
2017-12-14T17:33:31.713Z,15.00
2017-12-14T17:35:59.278Z,15.27
2017-12-14T17:38:27.018Z,20.90
2017-12-14T17:40:54.549Z,13.60
2017-12-14T17:43:22.096Z,13.50
2017-12-14T17:45:49.983Z,7.83
2017-12-14T17:48:20.690Z,14.10
2017-12-14T17:50:48.363Z,10.83
2017-12-14T17:53:15.945Z,13.70
2017-12-14T17:55:43.471Z,13.63
2017-12-14T17:58:10.992Z,14.83
2017-12-14T18:00:39.077Z,7.80
2017-12-14T18:03:07.412Z,8.40
2017-12-14T18:05:34.980Z,8.90
2017-12-14T18:08:02.542Z,11.37
2017-12-14T18:10:30.084Z,12.37
2017-12-14T18:12:57.682Z,22.50
2017-12-14T18:15:25.747Z,11.93
2017-12-14T18:17:53.476Z,13.57
2017-12-14T18:20:21.037Z,14.83
2017-12-14T18:22:48.621Z,22.13
2017-12-14T18:25:16.162Z,15.73
2017-12-14T18:27:43.748Z,8.27
2017-12-14T18:30:11.328Z,17.70
2017-12-14T18:32:39.758Z,8.53
2017-12-14T18:35:07.427Z,10.83
2017-12-14T18:37:35.021Z,8.97
2017-12-14T18:40:02.954Z,9.47
2017-12-14T18:42:30.691Z,9.63
2017-12-14T18:44:58.291Z,8.57
2017-12-14T18:47:25.896Z,10.00
2017-12-14T18:49:54.235Z,8.43
2017-12-14T18:52:21.925Z,12.77
2017-12-14T18:54:49.486Z,10.73
2017-12-14T18:57:17.079Z,14.10
2017-12-14T18:59:44.771Z,16.67
2017-12-14T19:02:12.376Z,10.27
2017-12-14T19:04:40.289Z,11.77
2017-12-14T19:07:08.698Z,13.03
2017-12-14T19:09:36.289Z,11.77
2017-12-14T19:12:04.843Z,14.27
2017-12-14T19:14:32.482Z,11.03
2017-12-14T19:17:00.073Z,12.67
2017-12-14T19:19:27.672Z,13.50
2017-12-14T19:21:55.341Z,12.70
2017-12-14T19:24:23.307Z,12.53
2017-12-14T19:29:24.673Z,13.10
2017-12-14T19:31:52.453Z,13.93
2017-12-14T19:34:20.016Z,10.20
2017-12-14T19:36:47.606Z,15.43
2017-12-14T19:39:15.240Z,14.23
2017-12-14T19:41:42.799Z,15.23
2017-12-14T19:44:11.016Z,14.90
2017-12-14T19:46:38.635Z,24.90
2017-12-14T19:49:06.200Z,17.70
2017-12-14T19:51:36.440Z,15.17
2017-12-14T19:54:03.990Z,12.80
2017-12-14T19:56:31.527Z,17.03
2017-12-14T19:58:59.134Z,14.03
2017-12-14T20:01:26.755Z,9.63
2017-12-14T20:03:54.334Z,10.87
2017-12-14T20:06:21.968Z,14.70
2017-12-14T20:08:50.046Z,9.87
2017-12-14T20:11:18.064Z,10.80
2017-12-14T20:13:46.044Z,14.10
2017-12-14T20:16:14.342Z,11.90
2017-12-14T20:18:42.809Z,13.30
2017-12-14T20:21:11.231Z,11.13
2017-12-14T20:23:39.312Z,9.37
2017-12-14T20:26:07.735Z,11.90
2017-12-14T20:28:35.366Z,11.93
2017-12-14T20:31:03.872Z,12.50
2017-12-14T20:33:31.428Z,12.13
2017-12-14T20:35:59.063Z,11.90
2017-12-14T20:38:26.621Z,16.30
2017-12-14T20:40:54.234Z,12.20
2017-12-14T20:43:22.611Z,27.43
2017-12-14T20:45:51.228Z,14.20
2017-12-14T20:48:18.890Z,14.97
2017-12-14T20:50:46.458Z,16.50
2017-12-14T20:53:15.783Z,12.30
2017-12-14T20:55:44.322Z,14.50
2017-12-14T20:58:11.943Z,18.20
2017-12-14T21:00:39.594Z,16.27
2017-12-14T21:03:07.448Z,17.03
2017-12-14T21:05:35.018Z,15.50
2017-12-14T21:08:02.997Z,18.00
2017-12-14T21:10:30.630Z,15.60
2017-12-14T21:12:59.070Z,16.83
2017-12-14T21:15:27.718Z,17.50
2017-12-14T21:17:55.313Z,21.53
2017-12-14T21:20:24.137Z,20.67
2017-12-14T21:22:51.751Z,18.30
2017-12-14T21:25:20.144Z,19.20
2017-12-14T21:27:48.526Z,27.10
2017-12-14T21:30:17.565Z,15.97
2017-12-14T21:32:46.861Z,16.93
2017-12-14T21:35:14.450Z,17.23
2017-12-14T21:37:42.063Z,15.80
2017-12-14T21:40:09.589Z,18.03
2017-12-14T21:42:37.142Z,13.23
2017-12-14T21:45:05.633Z,21.63
2017-12-14T21:47:33.404Z,14.70
2017-12-14T21:50:00.959Z,13.93
2017-12-14T21:52:29.312Z,15.53
2017-12-14T21:54:56.942Z,12.40
2017-12-14T21:57:24.496Z,15.73
2017-12-14T21:59:52.167Z,16.10
2017-12-14T22:02:19.712Z,15.80
2017-12-14T22:04:47.287Z,13.30
2017-12-14T22:07:14.885Z,14.37
2017-12-14T22:09:42.487Z,14.57
2017-12-14T22:12:10.409Z,15.40
2017-12-14T22:14:38.505Z,15.17
2017-12-14T22:17:07.286Z,15.03
2017-12-14T22:19:35.973Z,15.30
2017-12-14T22:22:03.719Z,21.13
2017-12-14T22:24:31.415Z,19.40
2017-12-14T22:26:59.734Z,16.63
2017-12-14T22:42:22.366Z,12.50
2017-12-14T22:44:49.925Z,12.10
2017-12-14T22:47:17.568Z,14.10
2017-12-14T22:49:45.143Z,13.77
2017-12-14T22:52:12.747Z,14.00
2017-12-14T22:54:41.966Z,18.10
2017-12-14T22:57:10.411Z,14.00
2017-12-14T22:59:38.006Z,19.27
2017-12-14T23:02:05.604Z,15.47
2017-12-14T23:04:33.150Z,14.80
2017-12-14T23:07:00.757Z,21.07
2017-12-14T23:09:28.315Z,16.70
2017-12-14T23:11:55.984Z,11.50
2017-12-14T23:14:23.552Z,17.20
2017-12-14T23:16:51.166Z,17.67
2017-12-14T23:19:18.703Z,15.80
2017-12-14T23:21:46.303Z,16.90
2017-12-14T23:24:13.875Z,12.40
2017-12-14T23:26:41.627Z,14.13
2017-12-14T23:29:09.148Z,18.23
2017-12-14T23:31:36.692Z,14.13
2017-12-14T23:34:05.368Z,16.90
2017-12-14T23:36:33.690Z,21.00
2017-12-14T23:39:01.245Z,22.20
2017-12-14T23:41:28.923Z,18.33
2017-12-14T23:43:56.570Z,17.63
2017-12-14T23:46:24.175Z,18.23
2017-12-14T23:48:51.742Z,22.03
2017-12-14T23:51:19.406Z,19.83
2017-12-14T23:53:47.017Z,22.70
2017-12-14T23:56:14.616Z,20.00
2017-12-14T23:58:42.190Z,18.17
